Terminal Aerodrome Forecast
Issued by NWS

Home | Current Version | Previous Version | Text Only | Print | Product List | Glossary On
Versions: 1 2 3 4 5 6 7 8 9 10 11 12 13 14 15 16 17 18 19 20 21 22 23 24 25 26 27 28 29 30 31 32
000
FTUS41 KRNK 011727
TAFBCB
TAF
KBCB 011727Z 0118/0218 10006KT P6SM BKN100
     FM012200 14006KT P6SM -RA OVC050
     FM020300 18006KT 6SM -RA BR OVC025
     FM020600 22006KT 2SM RA BR OVC007
     FM021200 27010KT P6SM -RA OVC025
     FM021500 28010G32KT P6SM -SHSN BKN030=

USA.gov is the U.S. government's official web portal to all federal, state and local government web resources and services.